createdAt,value
2018-09-15T00:01:49.196Z,7.07
2018-09-15T00:04:17.400Z,8.05
2018-09-15T00:06:45.628Z,7.12
2018-09-15T00:09:13.847Z,7.33
2018-09-15T00:11:42.097Z,8.20
2018-09-15T00:14:10.340Z,8.27
2018-09-15T00:16:38.651Z,7.13
2018-09-15T00:19:06.884Z,7.60
2018-09-15T00:21:35.140Z,7.47
2018-09-15T00:24:04.264Z,7.20
2018-09-15T00:26:32.588Z,7.97
2018-09-15T00:29:00.824Z,7.70
2018-09-15T00:31:29.085Z,8.18
2018-09-15T00:33:57.302Z,8.13
2018-09-15T00:36:25.495Z,7.57
2018-09-15T00:38:53.755Z,7.43
2018-09-15T00:41:21.993Z,6.67
2018-09-15T00:43:50.345Z,7.17
2018-09-15T00:46:18.584Z,6.47
2018-09-15T00:48:46.863Z,6.40
2018-09-15T00:51:15.098Z,7.43
2018-09-15T00:53:43.343Z,6.43
2018-09-15T00:56:11.584Z,6.80
2018-09-15T00:58:39.819Z,6.60
2018-09-15T01:01:08.029Z,6.53
2018-09-15T01:03:37.016Z,6.77
2018-09-15T01:06:05.302Z,6.20
2018-09-15T01:08:33.627Z,6.30
2018-09-15T01:11:01.873Z,6.23
2018-09-15T01:13:30.987Z,6.37
2018-09-15T01:15:59.215Z,5.93
2018-09-15T01:18:27.448Z,6.00
2018-09-15T01:20:55.649Z,7.13
2018-09-15T01:23:23.844Z,5.40
2018-09-15T01:25:52.064Z,6.23
2018-09-15T01:28:20.271Z,6.40
2018-09-15T01:30:48.460Z,5.60
2018-09-15T01:33:16.693Z,6.00
2018-09-15T01:35:44.986Z,5.70
2018-09-15T01:38:13.632Z,6.53
2018-09-15T01:40:41.891Z,5.80
2018-09-15T01:43:10.160Z,5.97
2018-09-15T01:45:38.416Z,5.27
2018-09-15T01:48:06.697Z,5.60
2018-09-15T01:50:34.920Z,5.17
2018-09-15T01:53:03.535Z,5.17
2018-09-15T01:55:31.880Z,5.47
2018-09-15T01:58:00.134Z,5.20
2018-09-15T02:00:28.369Z,5.07
2018-09-15T02:02:57.016Z,5.23
2018-09-15T02:05:25.239Z,5.00
2018-09-15T02:07:53.460Z,5.00
2018-09-15T02:10:21.711Z,5.27
2018-09-15T02:12:49.933Z,4.95
2018-09-15T02:15:18.136Z,5.00
2018-09-15T02:17:46.352Z,5.47
2018-09-15T02:20:14.555Z,4.40
2018-09-15T02:22:42.924Z,5.13
2018-09-15T02:25:11.024Z,4.53
2018-09-15T02:27:39.298Z,4.47
2018-09-15T02:30:07.537Z,4.97
2018-09-15T02:32:35.792Z,5.75
2018-09-15T02:35:04.024Z,5.13
2018-09-15T02:37:32.266Z,5.40
2018-09-15T02:40:00.532Z,5.80
2018-09-15T02:42:28.789Z,5.83
2018-09-15T02:44:57.028Z,6.10
2018-09-15T02:47:25.263Z,5.00
2018-09-15T02:49:53.488Z,5.60
2018-09-15T02:52:21.691Z,5.50
2018-09-15T02:54:49.970Z,5.97
2018-09-15T02:57:18.144Z,5.90
2018-09-15T02:59:46.388Z,5.40
2018-09-15T03:02:14.603Z,5.65
2018-09-15T03:04:43.072Z,5.30
2018-09-15T03:07:11.301Z,5.20
2018-09-15T03:09:39.564Z,5.00
2018-09-15T03:12:07.828Z,5.53
2018-09-15T03:14:36.080Z,5.60
2018-09-15T03:17:04.344Z,5.70
2018-09-15T03:19:32.612Z,6.00
2018-09-15T03:22:00.861Z,5.90
2018-09-15T03:24:29.097Z,6.00
2018-09-15T03:26:57.304Z,5.60
2018-09-15T03:29:25.548Z,5.87
2018-09-15T03:31:53.769Z,6.13
2018-09-15T03:34:22.015Z,5.87
2018-09-15T03:36:50.259Z,5.70
2018-09-15T03:39:18.505Z,5.50
2018-09-15T03:41:46.857Z,6.17
2018-09-15T03:44:14.975Z,5.67
2018-09-15T03:46:43.220Z,6.00
2018-09-15T03:49:11.443Z,6.73
2018-09-15T03:51:39.683Z,6.83
2018-09-15T03:54:08.664Z,6.40
2018-09-15T03:56:36.930Z,6.65
2018-09-15T03:59:05.150Z,6.50
2018-09-15T04:01:33.405Z,6.90
2018-09-15T04:04:01.680Z,6.80
2018-09-15T04:06:29.924Z,6.80
2018-09-15T04:08:58.220Z,6.47
2018-09-15T04:11:26.423Z,6.60
2018-09-15T04:13:54.737Z,6.67
2018-09-15T04:16:22.975Z,7.03
2018-09-15T04:18:51.203Z,7.58
2018-09-15T04:21:19.396Z,7.30
2018-09-15T04:23:47.610Z,7.42
2018-09-15T04:26:15.805Z,7.10
2018-09-15T04:28:44.271Z,7.30
2018-09-15T04:31:12.496Z,6.87
2018-09-15T04:33:40.809Z,7.07
2018-09-15T04:36:09.072Z,6.60
2018-09-15T04:38:37.400Z,7.87
2018-09-15T04:41:06.033Z,6.92
2018-09-15T04:43:34.301Z,7.30
2018-09-15T04:46:02.583Z,7.03
2018-09-15T04:48:30.892Z,6.93
2018-09-15T04:50:59.886Z,7.83
2018-09-15T04:53:28.113Z,7.37
2018-09-15T04:55:56.323Z,6.77
2018-09-15T04:58:24.543Z,7.00
2018-09-15T05:00:52.767Z,7.57
2018-09-15T05:03:21.033Z,6.78
2018-09-15T05:05:49.279Z,6.77
2018-09-15T05:08:17.516Z,6.33
2018-09-15T05:10:45.775Z,6.70
2018-09-15T05:13:14.028Z,6.60
2018-09-15T05:15:42.295Z,6.17
2018-09-15T05:18:10.549Z,6.53
2018-09-15T05:20:38.792Z,5.90
2018-09-15T05:23:07.126Z,6.63
2018-09-15T05:25:35.369Z,6.60
2018-09-15T05:28:03.595Z,6.43
2018-09-15T05:30:31.856Z,6.80
2018-09-15T05:33:00.119Z,6.53
2018-09-15T05:35:28.987Z,6.47
2018-09-15T05:37:57.219Z,6.93
2018-09-15T05:40:25.477Z,7.20
2018-09-15T05:42:53.729Z,6.55
2018-09-15T05:45:21.960Z,5.47
2018-09-15T05:47:50.428Z,6.03
2018-09-15T05:50:18.682Z,6.43
2018-09-15T05:52:46.921Z,7.77
2018-09-15T05:55:15.188Z,6.45
2018-09-15T05:57:43.423Z,6.20
2018-09-15T06:00:11.667Z,6.20
2018-09-15T06:02:39.912Z,6.07
2018-09-15T06:05:08.177Z,6.07
2018-09-15T06:07:36.395Z,6.20
2018-09-15T06:10:04.941Z,6.77
2018-09-15T06:12:33.176Z,6.10
2018-09-15T06:15:01.440Z,5.50
2018-09-15T06:17:29.669Z,5.53
2018-09-15T06:19:57.929Z,4.97
2018-09-15T06:22:26.214Z,4.75
2018-09-15T06:24:55.255Z,4.83
2018-09-15T06:27:23.508Z,5.00
2018-09-15T06:29:51.736Z,4.90
2018-09-15T06:32:19.955Z,5.53
2018-09-15T06:34:48.208Z,5.05
2018-09-15T06:37:16.447Z,4.90
2018-09-15T06:39:44.751Z,4.95
2018-09-15T06:42:12.983Z,4.75
2018-09-15T06:44:41.239Z,4.90
2018-09-15T06:47:09.488Z,5.17
2018-09-15T06:49:37.733Z,4.40
2018-09-15T06:52:06.512Z,4.75
2018-09-15T06:54:34.752Z,4.45
2018-09-15T06:57:03.016Z,4.33
2018-09-15T06:59:31.232Z,4.40
2018-09-15T07:01:59.462Z,4.30
2018-09-15T07:04:27.725Z,4.53
2018-09-15T07:06:56.104Z,4.30
2018-09-15T07:09:24.336Z,4.62
2018-09-15T07:11:52.571Z,5.20
2018-09-15T07:14:20.788Z,4.53
2018-09-15T07:16:49.044Z,5.40
2018-09-15T07:19:17.278Z,5.35
2018-09-15T07:21:45.500Z,5.12
2018-09-15T07:24:13.730Z,5.05
2018-09-15T07:26:41.952Z,4.67
2018-09-15T07:29:10.228Z,4.97
2018-09-15T07:31:38.523Z,4.90
2018-09-15T07:34:06.927Z,5.25
2018-09-15T07:36:35.236Z,5.12
2018-09-15T07:39:04.325Z,5.12
2018-09-15T07:41:32.557Z,4.83
2018-09-15T07:44:00.824Z,5.42
2018-09-15T07:46:29.036Z,5.37
2018-09-15T07:48:57.278Z,5.00
2018-09-15T07:51:26.280Z,5.30
2018-09-15T07:53:55.591Z,4.92
2018-09-15T07:56:23.816Z,5.92
2018-09-15T07:58:52.206Z,5.33
2018-09-15T08:01:21.023Z,5.58
2018-09-15T08:03:49.284Z,6.03
2018-09-15T08:06:17.545Z,4.83
2018-09-15T08:08:45.833Z,5.33
2018-09-15T08:11:14.136Z,5.40
2018-09-15T08:13:42.367Z,5.20
2018-09-15T08:16:10.675Z,5.92
2018-09-15T08:18:39.843Z,5.15
2018-09-15T08:21:08.324Z,5.43
2018-09-15T08:23:36.619Z,5.78
2018-09-15T08:26:04.927Z,6.10
2018-09-15T08:28:33.155Z,5.92
2018-09-15T08:31:01.393Z,6.60
2018-09-15T08:33:29.596Z,5.92
2018-09-15T08:35:57.863Z,6.17
2018-09-15T08:38:26.147Z,6.12
2018-09-15T08:40:54.563Z,6.30
2018-09-15T08:43:22.788Z,6.22
2018-09-15T08:45:52.639Z,4.95
2018-09-15T08:48:20.937Z,5.62
2018-09-15T08:50:49.180Z,5.00
2018-09-15T08:53:18.080Z,5.67
2018-09-15T08:55:46.328Z,5.65
2018-09-15T08:58:15.500Z,6.25
2018-09-15T09:00:43.740Z,5.72
2018-09-15T09:03:12.004Z,5.67
2018-09-15T09:05:40.895Z,6.12
2018-09-15T09:08:09.153Z,5.55
2018-09-15T09:10:37.437Z,4.47
2018-09-15T09:13:05.704Z,4.70
2018-09-15T09:15:34.920Z,4.70
2018-09-15T09:18:03.153Z,4.47
2018-09-15T09:20:31.415Z,4.80
2018-09-15T09:22:59.625Z,4.67
2018-09-15T09:25:27.876Z,4.87
2018-09-15T09:27:56.115Z,4.63
2018-09-15T09:30:24.390Z,3.98
2018-09-15T09:32:52.663Z,4.35
2018-09-15T09:35:20.888Z,4.17
2018-09-15T09:37:49.148Z,4.50
2018-09-15T09:40:17.339Z,5.15
2018-09-15T09:42:45.591Z,4.60
2018-09-15T09:45:13.839Z,3.72
2018-09-15T09:47:42.106Z,3.60
2018-09-15T09:50:10.279Z,4.08
2018-09-15T09:52:38.552Z,3.80
2018-09-15T09:55:06.796Z,3.67
2018-09-15T09:57:35.036Z,3.20
2018-09-15T10:00:03.243Z,3.05
2018-09-15T10:02:31.461Z,3.05
2018-09-15T10:04:59.723Z,2.60
2018-09-15T10:07:28.031Z,3.30
2018-09-15T10:09:56.341Z,3.40
2018-09-15T10:12:24.536Z,3.25
2018-09-15T10:14:52.804Z,2.98
2018-09-15T10:17:21.059Z,2.80
2018-09-15T10:19:49.281Z,2.90
2018-09-15T10:22:17.495Z,3.08
2018-09-15T10:24:45.757Z,2.67
2018-09-15T10:27:14.021Z,3.33
2018-09-15T10:29:42.247Z,2.75
2018-09-15T10:32:10.658Z,2.90
2018-09-15T10:34:38.798Z,2.35
2018-09-15T10:37:07.084Z,2.20
2018-09-15T10:39:35.341Z,1.82
2018-09-15T10:42:03.671Z,1.15
2018-09-15T10:44:31.936Z,1.20
2018-09-15T10:47:00.187Z,1.60
2018-09-15T10:49:28.430Z,2.10
2018-09-15T10:51:56.718Z,1.87
2018-09-15T10:54:24.972Z,2.15
2018-09-15T10:56:53.228Z,2.20
2018-09-15T10:59:21.455Z,2.83
2018-09-15T11:01:49.741Z,2.55
2018-09-15T11:04:17.948Z,2.80
2018-09-15T11:06:46.236Z,2.40
2018-09-15T11:09:14.558Z,2.00
2018-09-15T11:11:42.810Z,1.65
2018-09-15T11:14:11.112Z,1.57
2018-09-15T11:16:39.339Z,1.75
2018-09-15T11:19:07.617Z,1.98
2018-09-15T11:21:35.910Z,2.40
2018-09-15T11:24:04.164Z,2.40
2018-09-15T11:26:32.408Z,1.50
2018-09-15T11:29:01.426Z,2.27
2018-09-15T11:31:29.606Z,1.90
2018-09-15T11:33:57.851Z,2.02
2018-09-15T11:36:26.141Z,2.02
2018-09-15T11:38:54.453Z,2.22
2018-09-15T11:41:22.728Z,1.77
2018-09-15T11:43:50.999Z,2.00
2018-09-15T11:46:19.276Z,1.75
2018-09-15T11:48:47.575Z,1.95
2018-09-15T11:51:15.838Z,1.95
2018-09-15T11:53:44.174Z,1.52
2018-09-15T11:56:12.415Z,2.02
2018-09-15T11:58:40.728Z,1.77
2018-09-15T12:01:09.009Z,1.95
2018-09-15T12:03:37.377Z,1.70
2018-09-15T12:06:05.651Z,1.70
2018-09-15T12:08:33.920Z,1.98
2018-09-15T12:11:02.206Z,1.87
2018-09-15T12:13:30.445Z,1.87
2018-09-15T12:15:58.751Z,2.05
2018-09-15T12:18:27.065Z,2.08
2018-09-15T12:20:55.326Z,2.30
2018-09-15T12:23:23.569Z,2.10
2018-09-15T12:25:51.896Z,1.95
2018-09-15T12:28:20.176Z,2.00
2018-09-15T12:30:48.413Z,1.70
2018-09-15T12:33:16.687Z,2.20
2018-09-15T12:35:44.913Z,2.20
2018-09-15T12:38:13.174Z,1.98
2018-09-15T12:40:41.432Z,1.90
2018-09-15T12:43:09.987Z,2.00
2018-09-15T12:45:38.296Z,1.60
2018-09-15T12:48:06.736Z,1.70
2018-09-15T12:50:35.773Z,1.98
2018-09-15T12:53:03.996Z,2.50
2018-09-15T12:55:32.222Z,2.02
2018-09-15T12:58:00.517Z,1.70
2018-09-15T13:00:29.654Z,1.90
2018-09-15T13:02:57.994Z,2.22
2018-09-15T13:05:26.237Z,2.22
2018-09-15T13:07:54.502Z,2.35
2018-09-15T13:10:22.752Z,1.75
2018-09-15T13:12:51.045Z,1.52
2018-09-15T13:15:19.338Z,1.50
2018-09-15T13:17:47.648Z,1.80
2018-09-15T13:20:15.906Z,1.65
2018-09-15T13:22:44.191Z,1.43
2018-09-15T13:25:12.442Z,1.40
2018-09-15T13:27:40.796Z,1.77
2018-09-15T13:30:09.236Z,1.80
2018-09-15T13:32:37.481Z,1.80
2018-09-15T13:35:05.803Z,1.80
2018-09-15T13:37:34.096Z,1.55
2018-09-15T13:40:02.342Z,1.47
2018-09-15T13:42:30.600Z,1.45
2018-09-15T13:44:58.869Z,1.87
2018-09-15T13:47:27.117Z,1.92
2018-09-15T13:49:55.383Z,1.87
2018-09-15T13:52:23.611Z,1.32
2018-09-15T13:54:51.893Z,1.40
2018-09-15T13:57:20.518Z,1.80
2018-09-15T13:59:48.771Z,1.52
2018-09-15T14:02:17.048Z,1.50
2018-09-15T14:04:45.353Z,1.70
2018-09-15T14:07:13.644Z,1.70
2018-09-15T14:09:43.801Z,1.60
2018-09-15T14:12:10.220Z,1.45
2018-09-15T14:14:38.527Z,1.67
2018-09-15T14:17:06.895Z,1.60
2018-09-15T14:19:35.151Z,1.60
2018-09-15T14:22:03.479Z,1.65
2018-09-15T14:24:32.017Z,1.65
2018-09-15T14:27:00.476Z,1.70
2018-09-15T14:29:28.874Z,1.62
2018-09-15T14:31:57.247Z,1.95
2018-09-15T14:34:25.522Z,1.82
2018-09-15T14:36:54.674Z,1.85
2018-09-15T14:39:22.941Z,1.92
2018-09-15T14:41:51.204Z,1.70
2018-09-15T14:44:19.484Z,1.65
2018-09-15T14:46:47.752Z,1.70
2018-09-15T14:49:16.023Z,1.63
2018-09-15T14:51:44.368Z,1.62
2018-09-15T14:54:12.672Z,1.77
2018-09-15T14:56:40.924Z,1.90
2018-09-15T14:59:09.201Z,1.70
2018-09-15T15:01:37.520Z,1.90
2018-09-15T15:04:06.010Z,2.15
2018-09-15T15:06:34.292Z,2.20
2018-09-15T15:09:02.609Z,2.08
2018-09-15T15:11:31.664Z,1.80
2018-09-15T15:13:59.980Z,1.55
2018-09-15T15:16:28.257Z,2.00
2018-09-15T15:18:56.552Z,2.12
2018-09-15T15:21:24.811Z,1.57
2018-09-15T15:23:53.093Z,2.25
2018-09-15T15:26:21.430Z,1.50
2018-09-15T15:28:49.723Z,1.80
2018-09-15T15:31:17.980Z,2.02
2018-09-15T15:33:46.266Z,1.87
2018-09-15T15:36:14.516Z,1.90
2018-09-15T15:38:43.335Z,2.25
2018-09-15T15:41:11.589Z,1.98
2018-09-15T15:43:39.881Z,1.77
2018-09-15T15:46:08.164Z,1.85
2018-09-15T15:48:36.463Z,2.10
2018-09-15T15:51:04.730Z,1.90
2018-09-15T15:53:33.009Z,2.15
2018-09-15T15:56:01.775Z,1.90
2018-09-15T15:58:30.070Z,1.70
2018-09-15T16:00:58.410Z,2.12
2018-09-15T16:03:27.275Z,2.00
2018-09-15T16:05:55.548Z,2.40
2018-09-15T16:08:23.861Z,2.02
2018-09-15T16:10:52.197Z,2.17
2018-09-15T16:13:21.365Z,2.05
2018-09-15T16:15:49.692Z,1.90
2018-09-15T16:18:17.999Z,1.67
2018-09-15T16:20:46.277Z,1.93
2018-09-15T16:23:14.522Z,1.70
2018-09-15T16:25:42.858Z,1.95
2018-09-15T16:28:11.105Z,1.85
2018-09-15T16:30:39.397Z,2.17
2018-09-15T16:33:07.669Z,2.47
2018-09-15T16:35:35.937Z,2.25
2018-09-15T16:38:04.268Z,2.00
2018-09-15T16:40:32.596Z,1.87
2018-09-15T16:43:00.841Z,2.30
2018-09-15T16:45:29.085Z,2.33
2018-09-15T16:47:57.364Z,2.00
2018-09-15T16:50:25.643Z,2.22
2018-09-15T16:52:53.900Z,2.35
2018-09-15T16:55:22.166Z,2.20
2018-09-15T16:57:50.399Z,2.00
2018-09-15T17:00:18.674Z,2.65
2018-09-15T17:02:46.913Z,2.67
2018-09-15T17:05:15.196Z,4.15
2018-09-15T17:07:43.452Z,3.40
2018-09-15T17:10:11.765Z,2.70
2018-09-15T17:12:40.023Z,2.58
2018-09-15T17:15:08.348Z,2.47
2018-09-15T17:17:36.654Z,2.30
2018-09-15T17:20:04.940Z,2.33
2018-09-15T17:22:33.284Z,2.45
2018-09-15T17:25:01.556Z,2.30
2018-09-15T17:27:29.848Z,2.25
2018-09-15T17:29:58.134Z,2.20
2018-09-15T17:32:26.412Z,2.40
2018-09-15T17:34:54.711Z,2.17
2018-09-15T17:37:23.027Z,7.72
2018-09-15T17:39:51.343Z,2.35
2018-09-15T17:42:19.654Z,2.47
2018-09-15T17:44:47.954Z,3.12
2018-09-15T17:47:16.388Z,2.92
2018-09-15T17:49:44.689Z,2.75
2018-09-15T17:52:13.004Z,2.27
2018-09-15T17:54:41.388Z,2.15
2018-09-15T17:57:10.175Z,3.17
2018-09-15T17:59:38.547Z,4.70
2018-09-15T18:02:06.837Z,5.45
2018-09-15T18:04:35.193Z,5.13
2018-09-15T18:07:03.920Z,5.15
2018-09-15T18:09:32.282Z,5.12
2018-09-15T18:12:00.683Z,4.03
2018-09-15T18:14:29.173Z,3.83
2018-09-15T18:16:57.871Z,3.73
2018-09-15T18:19:26.751Z,2.83
2018-09-15T18:21:55.678Z,3.10
2018-09-15T18:24:24.440Z,3.35
2018-09-15T18:26:52.750Z,3.77
2018-09-15T18:29:21.029Z,3.22
2018-09-15T18:31:50.490Z,3.83
2018-09-15T18:34:18.786Z,3.05
2018-09-15T18:36:47.205Z,2.55
2018-09-15T18:39:15.731Z,3.05
2018-09-15T18:41:44.016Z,2.50
2018-09-15T18:44:12.326Z,3.10
2018-09-15T18:46:40.664Z,3.10
2018-09-15T18:49:08.953Z,2.87
2018-09-15T18:51:37.316Z,3.20
2018-09-15T18:54:05.650Z,3.20
2018-09-15T18:56:34.045Z,3.67
2018-09-15T18:59:02.330Z,3.43
2018-09-15T19:01:30.792Z,3.30
2018-09-15T19:03:59.128Z,3.73
2018-09-15T19:06:27.409Z,2.83
2018-09-15T19:08:55.731Z,3.50
2018-09-15T19:11:24.029Z,3.13
2018-09-15T19:13:52.661Z,2.50
2018-09-15T19:16:21.100Z,3.13
2018-09-15T19:18:49.421Z,3.07
2018-09-15T19:21:17.722Z,3.13
2018-09-15T19:23:46.092Z,3.53
2018-09-15T19:26:14.388Z,3.50
2018-09-15T19:28:42.698Z,3.33
2018-09-15T19:31:10.986Z,3.03
2018-09-15T19:33:39.281Z,2.83
2018-09-15T19:36:07.953Z,3.40
2018-09-15T19:38:36.384Z,2.60
2018-09-15T19:41:04.856Z,5.73
2018-09-15T19:43:33.190Z,4.70
2018-09-15T19:46:01.635Z,3.20
2018-09-15T19:48:29.949Z,3.53
2018-09-15T19:50:58.575Z,7.33
2018-09-15T19:53:26.888Z,5.13
2018-09-15T19:55:55.222Z,4.67
2018-09-15T19:58:23.656Z,3.47
2018-09-15T20:00:52.181Z,3.37
2018-09-15T20:03:20.516Z,3.30
2018-09-15T20:05:48.824Z,3.63
2018-09-15T20:08:17.123Z,3.60
2018-09-15T20:10:45.425Z,2.97
2018-09-15T20:13:15.600Z,3.17
2018-09-15T20:15:42.993Z,3.37
2018-09-15T20:18:10.278Z,3.73
2018-09-15T20:20:37.636Z,3.20
2018-09-15T20:23:06.106Z,3.60
2018-09-15T20:25:35.276Z,3.73
2018-09-15T20:28:03.617Z,3.50
2018-09-15T20:30:31.953Z,13.47
2018-09-15T20:33:00.328Z,7.83
2018-09-15T20:35:28.603Z,5.47
2018-09-15T20:37:56.893Z,4.87
2018-09-15T20:40:25.323Z,4.20
2018-09-15T20:42:53.651Z,3.50
2018-09-15T20:45:22.342Z,3.60
2018-09-15T20:47:50.764Z,3.43
2018-09-15T20:50:19.130Z,3.97
2018-09-15T20:52:48.045Z,3.80
2018-09-15T20:55:16.338Z,4.50
2018-09-15T20:57:45.047Z,3.70
2018-09-15T21:00:13.390Z,3.30
2018-09-15T21:02:42.009Z,4.30
2018-09-15T21:05:10.867Z,3.47
2018-09-15T21:07:39.310Z,4.70
2018-09-15T21:10:07.716Z,4.00
2018-09-15T21:12:36.942Z,3.77
2018-09-15T21:15:05.629Z,3.93
2018-09-15T21:17:33.927Z,3.40
2018-09-15T21:20:02.229Z,3.53
2018-09-15T21:22:30.493Z,3.67
2018-09-15T21:24:58.807Z,3.93
2018-09-15T21:27:27.076Z,3.87
2018-09-15T21:29:55.361Z,8.23
2018-09-15T21:32:23.720Z,7.20
2018-09-15T21:34:52.088Z,5.40
2018-09-15T21:37:20.404Z,5.50
2018-09-15T21:39:48.686Z,5.20
2018-09-15T21:42:16.985Z,3.47
2018-09-15T21:44:45.262Z,3.87
2018-09-15T21:47:13.548Z,6.53
2018-09-15T21:49:41.840Z,4.57
2018-09-15T21:52:10.121Z,4.70
2018-09-15T21:54:38.377Z,5.37
2018-09-15T21:57:06.604Z,3.07
2018-09-15T21:59:34.852Z,5.47
2018-09-15T22:02:03.105Z,5.90
2018-09-15T22:04:31.339Z,3.07
2018-09-15T22:06:59.592Z,3.47
2018-09-15T22:09:27.863Z,3.50
2018-09-15T22:11:56.095Z,3.67
2018-09-15T22:14:24.363Z,2.90
2018-09-15T22:16:52.671Z,5.07
2018-09-15T22:19:20.888Z,4.27
2018-09-15T22:21:49.157Z,5.50
2018-09-15T22:24:17.408Z,3.87
2018-09-15T22:26:45.657Z,3.90
2018-09-15T22:29:13.886Z,4.00
2018-09-15T22:31:42.135Z,4.17
2018-09-15T22:34:10.449Z,4.10
2018-09-15T22:36:38.721Z,3.93
2018-09-15T22:39:07.983Z,3.87
2018-09-15T22:41:36.773Z,4.40
2018-09-15T22:44:05.021Z,4.13
2018-09-15T22:46:33.254Z,4.50
2018-09-15T22:49:01.512Z,4.03
2018-09-15T22:51:29.751Z,4.20
2018-09-15T22:53:58.007Z,4.10
2018-09-15T22:56:26.271Z,4.17
2018-09-15T22:58:54.541Z,3.37
2018-09-15T23:01:22.780Z,4.03
2018-09-15T23:03:56.201Z,4.57
2018-09-15T23:06:24.627Z,4.70
2018-09-15T23:08:52.868Z,3.93
2018-09-15T23:11:21.094Z,4.20
2018-09-15T23:13:49.339Z,4.43
2018-09-15T23:16:18.084Z,4.20
2018-09-15T23:18:46.293Z,4.73
2018-09-15T23:21:14.505Z,4.40
2018-09-15T23:23:42.758Z,4.63
2018-09-15T23:26:10.987Z,4.37
2018-09-15T23:28:39.256Z,4.97
2018-09-15T23:31:07.520Z,4.53
2018-09-15T23:33:35.780Z,4.40
2018-09-15T23:36:04.523Z,4.60
2018-09-15T23:38:32.767Z,4.63
2018-09-15T23:41:00.990Z,4.83
2018-09-15T23:43:29.264Z,4.53
2018-09-15T23:45:57.485Z,5.23
2018-09-15T23:48:25.709Z,5.23
2018-09-15T23:50:53.969Z,4.53
2018-09-15T23:53:22.233Z,4.23
2018-09-15T23:55:50.509Z,5.00
2018-09-15T23:58:18.732Z,5.07
